createdAt,value
2022-08-25T00:02:35.461Z,22.52
2022-08-25T00:07:39.707Z,22.43
2022-08-25T00:12:44.572Z,22.70
2022-08-25T00:17:48.272Z,22.84
2022-08-25T00:22:51.724Z,22.91
2022-08-25T00:27:57.278Z,22.61
2022-08-25T00:33:01.354Z,22.52
2022-08-25T00:38:05.462Z,22.43
2022-08-25T00:43:10.928Z,22.18
2022-08-25T00:48:14.702Z,21.91
2022-08-25T00:53:19.050Z,21.90
2022-08-25T00:58:27.677Z,21.85
2022-08-25T01:03:35.574Z,21.85
2022-08-25T01:08:40.032Z,21.89
2022-08-25T01:13:54.335Z,21.87
2022-08-25T01:19:00.674Z,21.62
2022-08-25T01:24:06.220Z,21.61
2022-08-25T01:29:25.376Z,21.70
2022-08-25T01:34:31.541Z,21.84
2022-08-25T01:39:37.919Z,21.99
2022-08-25T01:44:43.555Z,21.91
2022-08-25T01:49:47.738Z,21.99
2022-08-25T01:54:53.453Z,21.99
2022-08-25T01:59:56.933Z,22.05
2022-08-25T02:05:00.761Z,22.09
2022-08-25T02:10:07.740Z,22.11
2022-08-25T02:15:12.104Z,21.99
2022-08-25T02:20:15.610Z,21.90
2022-08-25T02:25:21.380Z,21.87
2022-08-25T02:30:24.878Z,21.88
2022-08-25T02:35:29.841Z,21.75
2022-08-25T02:40:35.097Z,21.64
2022-08-25T02:45:38.645Z,21.46
2022-08-25T02:50:42.139Z,21.50
2022-08-25T02:55:47.574Z,21.32
2022-08-25T03:00:51.472Z,21.46
2022-08-25T03:05:56.176Z,21.49
2022-08-25T03:11:01.028Z,21.38
2022-08-25T03:16:11.430Z,21.24
2022-08-25T03:21:16.326Z,21.23
2022-08-25T03:26:40.162Z,21.28
2022-08-25T03:31:44.960Z,21.24
2022-08-25T03:36:50.485Z,21.37
2022-08-25T03:41:55.450Z,21.57
2022-08-25T03:46:58.899Z,21.57
2022-08-25T03:52:02.431Z,21.72
2022-08-25T03:57:07.380Z,21.76
2022-08-25T04:02:10.931Z,21.93
2022-08-25T04:07:14.457Z,22.04
2022-08-25T04:12:19.283Z,22.08
2022-08-25T04:17:23.414Z,22.18
2022-08-25T04:22:27.127Z,22.23
2022-08-25T04:27:35.335Z,22.33
2022-08-25T04:32:38.930Z,22.36
2022-08-25T04:37:42.543Z,22.47
2022-08-25T04:42:48.246Z,22.56
2022-08-25T04:47:54.830Z,22.63
2022-08-25T04:52:58.597Z,22.61
2022-08-25T04:58:03.592Z,22.76
2022-08-25T05:03:07.786Z,22.87
2022-08-25T05:08:11.382Z,22.91
2022-08-25T05:13:16.270Z,23.01
2022-08-25T05:18:21.919Z,23.22
2022-08-25T05:23:26.249Z,23.29
2022-08-25T05:28:31.801Z,23.41
2022-08-25T05:33:35.689Z,23.65
2022-08-25T05:38:40.398Z,23.92
2022-08-25T05:43:48.181Z,24.00
2022-08-25T05:48:52.447Z,24.13
2022-08-25T05:53:55.939Z,24.31
2022-08-25T05:59:00.813Z,24.62
2022-08-25T06:04:05.235Z,24.77
2022-08-25T06:09:10.282Z,25.02
2022-08-25T06:14:16.484Z,25.18
2022-08-25T06:19:21.336Z,25.53
2022-08-25T06:24:26.299Z,25.73
2022-08-25T06:29:31.477Z,26.00
2022-08-25T06:34:35.214Z,26.40
2022-08-25T06:39:38.733Z,26.56
2022-08-25T06:44:44.096Z,26.81
2022-08-25T06:49:48.391Z,26.93
2022-08-25T06:54:53.252Z,26.97
2022-08-25T06:59:58.141Z,26.99
2022-08-25T07:05:01.698Z,27.13
2022-08-25T07:10:07.762Z,27.17
2022-08-25T07:15:21.006Z,27.22
2022-08-25T07:25:32.940Z,27.65
2022-08-25T07:30:37.835Z,27.87
2022-08-25T07:35:43.782Z,27.99
2022-08-25T07:40:54.617Z,28.18
2022-08-25T07:46:01.940Z,28.46
2022-08-25T07:51:10.480Z,28.57
2022-08-25T07:56:16.701Z,28.59
2022-08-25T08:01:23.711Z,28.47
2022-08-25T08:06:27.440Z,28.65
2022-08-25T08:11:33.219Z,28.54
2022-08-25T08:16:38.940Z,28.50
2022-08-25T08:21:43.277Z,28.69
2022-08-25T08:26:58.581Z,28.91
2022-08-25T08:32:05.646Z,28.75
2022-08-25T08:37:10.481Z,28.80
2022-08-25T08:42:39.808Z,28.83
2022-08-25T08:47:56.158Z,28.86
2022-08-25T08:53:08.164Z,28.93
2022-08-25T08:58:17.090Z,28.83
2022-08-25T09:03:34.763Z,28.67
2022-08-25T09:08:39.829Z,28.57
2022-08-25T09:14:06.471Z,28.58
2022-08-25T09:19:32.841Z,28.53
2022-08-25T09:24:50.992Z,28.74
2022-08-25T09:30:10.105Z,28.84
2022-08-25T09:35:19.739Z,29.42
2022-08-25T09:40:24.761Z,29.51
2022-08-25T09:45:42.492Z,29.60
2022-08-25T09:50:47.624Z,29.95
2022-08-25T09:56:00.286Z,30.38
2022-08-25T10:01:14.791Z,30.26
2022-08-25T10:06:19.858Z,30.23
2022-08-25T10:11:37.997Z,30.44
2022-08-25T10:16:42.040Z,30.86
2022-08-25T10:22:07.185Z,31.26
2022-08-25T10:27:21.803Z,31.43
2022-08-25T10:32:32.336Z,31.46
2022-08-25T10:37:45.217Z,31.71
2022-08-25T10:43:07.193Z,31.55
2022-08-25T10:48:45.201Z,31.52
2022-08-25T10:53:57.153Z,31.84
2022-08-25T10:59:19.165Z,31.84
2022-08-25T11:04:27.413Z,31.99
2022-08-25T11:09:36.526Z,31.39
2022-08-25T11:14:47.170Z,31.31
2022-08-25T11:19:53.306Z,31.26
2022-08-25T11:25:13.160Z,30.99
2022-08-25T11:30:19.561Z,30.85
2022-08-25T11:35:30.600Z,31.19
2022-08-25T11:40:51.962Z,30.97
2022-08-25T11:46:20.872Z,30.72
2022-08-25T11:51:36.484Z,30.55
2022-08-25T11:56:42.210Z,30.30
2022-08-25T12:02:10.106Z,30.32
2022-08-25T12:07:28.952Z,29.95
2022-08-25T12:12:38.553Z,29.64
2022-08-25T12:17:42.976Z,29.42
2022-08-25T12:22:57.535Z,29.24
2022-08-25T12:28:10.521Z,29.06
2022-08-25T12:33:24.637Z,28.84
2022-08-25T12:38:35.051Z,28.25
2022-08-25T12:43:45.627Z,28.08
2022-08-25T12:48:57.922Z,27.98
2022-08-25T12:54:15.911Z,27.85
2022-08-25T12:59:25.436Z,27.87
2022-08-25T13:04:57.445Z,27.87
2022-08-25T13:10:33.233Z,27.71
2022-08-25T13:15:44.551Z,27.73
2022-08-25T13:20:54.180Z,27.66
2022-08-25T13:25:58.815Z,27.73
2022-08-25T13:31:15.440Z,27.74
2022-08-25T13:36:36.676Z,27.71
2022-08-25T13:41:45.979Z,27.61
2022-08-25T13:47:07.018Z,27.60
2022-08-25T13:52:19.797Z,27.54
2022-08-25T13:57:32.379Z,27.67
2022-08-25T14:02:49.929Z,27.81
2022-08-25T14:08:15.604Z,27.99
2022-08-25T14:13:33.161Z,28.20
2022-08-25T14:18:38.357Z,27.99
2022-08-25T14:23:43.461Z,27.80
2022-08-25T14:28:47.689Z,27.60
2022-08-25T14:33:57.016Z,27.55
2022-08-25T14:39:05.801Z,27.36
2022-08-25T14:44:12.643Z,27.29
2022-08-25T14:49:24.953Z,27.13
2022-08-25T14:54:29.199Z,27.04
2022-08-25T14:59:32.979Z,26.92
2022-08-25T15:04:38.939Z,26.82
2022-08-25T15:09:46.061Z,26.76
2022-08-25T15:14:50.243Z,26.73
2022-08-25T15:19:55.245Z,26.70
2022-08-25T15:24:58.712Z,26.59
2022-08-25T15:30:07.208Z,26.53
2022-08-25T15:35:12.514Z,26.51
2022-08-25T15:40:19.490Z,26.47
2022-08-25T15:45:23.205Z,26.27
2022-08-25T15:50:29.479Z,26.13
2022-08-25T15:55:33.257Z,26.10
2022-08-25T16:00:37.841Z,26.10
2022-08-25T16:05:48.176Z,25.99
2022-08-25T16:10:52.288Z,26.03
2022-08-25T16:15:56.501Z,26.03
2022-08-25T16:21:01.441Z,25.79
2022-08-25T16:26:06.820Z,25.80
2022-08-25T16:31:11.339Z,25.85
2022-08-25T16:36:19.223Z,25.74
2022-08-25T16:41:24.975Z,25.76
2022-08-25T16:46:28.723Z,25.60
2022-08-25T16:51:34.347Z,25.62
2022-08-25T16:56:42.288Z,25.49
2022-08-25T17:01:46.595Z,25.40
2022-08-25T17:06:52.130Z,25.31
2022-08-25T17:11:57.381Z,25.25
2022-08-25T17:17:00.894Z,25.18
2022-08-25T17:22:08.333Z,25.16
2022-08-25T17:27:14.233Z,25.03
2022-08-25T17:32:20.405Z,24.90
2022-08-25T17:37:25.402Z,24.71
2022-08-25T17:42:30.399Z,24.66
2022-08-25T17:47:34.814Z,24.63
2022-08-25T17:52:39.747Z,24.54
2022-08-25T17:57:43.679Z,24.48
2022-08-25T18:02:47.433Z,24.50
2022-08-25T18:07:52.491Z,24.52
2022-08-25T18:12:57.821Z,24.38
2022-08-25T18:18:01.909Z,24.37
2022-08-25T18:23:10.031Z,24.46
2022-08-25T18:28:13.532Z,24.45
2022-08-25T18:33:19.078Z,24.44
2022-08-25T18:38:41.587Z,24.35
2022-08-25T18:43:46.695Z,24.26
2022-08-25T18:48:52.882Z,24.18
2022-08-25T18:53:59.337Z,24.16
2022-08-25T18:59:05.737Z,24.10
2022-08-25T19:04:10.098Z,24.06
2022-08-25T19:09:15.270Z,24.03
2022-08-25T19:14:19.982Z,24.01
2022-08-25T19:19:23.785Z,24.01
2022-08-25T19:24:29.984Z,24.09
2022-08-25T19:29:33.798Z,24.04
2022-08-25T19:34:42.756Z,24.01
2022-08-25T19:39:52.629Z,23.99
2022-08-25T19:44:56.891Z,24.00
2022-08-25T19:50:00.429Z,23.91
2022-08-25T19:55:05.900Z,23.90
2022-08-25T20:00:11.953Z,23.88
2022-08-25T20:05:17.093Z,23.76
2022-08-25T20:10:31.737Z,23.43
2022-08-25T20:15:37.200Z,23.24
2022-08-25T20:20:42.910Z,23.16
2022-08-25T20:25:48.242Z,23.13
2022-08-25T20:30:53.731Z,23.07
2022-08-25T20:35:57.213Z,22.97
2022-08-25T20:41:03.456Z,22.93
2022-08-25T20:46:08.240Z,22.86
2022-08-25T20:51:13.127Z,22.81
2022-08-25T20:56:20.390Z,22.86
2022-08-25T21:01:37.629Z,22.92
2022-08-25T21:06:41.930Z,22.95
2022-08-25T21:11:47.754Z,22.81
2022-08-25T21:16:51.721Z,22.82
2022-08-25T21:21:59.927Z,22.79
2022-08-25T21:27:05.369Z,22.62
2022-08-25T21:32:09.972Z,22.63
2022-08-25T21:37:13.873Z,22.68
2022-08-25T21:42:19.096Z,22.66
2022-08-25T21:47:23.294Z,22.48
2022-08-25T21:52:27.206Z,22.51
2022-08-25T21:57:32.458Z,22.17
2022-08-25T22:02:40.076Z,22.03
2022-08-25T22:13:50.298Z,22.05
2022-08-25T22:18:54.310Z,22.02
2022-08-25T22:23:57.805Z,22.04
2022-08-25T22:29:03.030Z,21.93
2022-08-25T22:34:08.637Z,21.83
2022-08-25T22:39:13.358Z,21.88
2022-08-25T22:44:18.318Z,21.97
2022-08-25T22:49:22.257Z,21.90
2022-08-25T22:54:26.062Z,21.93
2022-08-25T22:59:31.787Z,21.92
2022-08-25T23:04:35.884Z,21.77
2022-08-25T23:09:45.301Z,21.77
2022-08-25T23:14:51.548Z,21.87
2022-08-25T23:19:55.345Z,21.84
2022-08-25T23:24:59.090Z,21.77
2022-08-25T23:30:04.185Z,21.73
2022-08-25T23:35:08.918Z,21.77
2022-08-25T23:40:13.153Z,21.61
2022-08-25T23:45:24.481Z,21.70
2022-08-25T23:50:29.493Z,21.82
2022-08-25T23:55:33.649Z,21.88
